Time;durP1;ratioP1;P1;durP2;ratioP2;P2;SDS_P1;SDS_P2;PMS_P1;PMS_P2;Temp;Humidity;BMP_temperature;BMP_pressure;BME280_temperature;BME280_humidity;BME280_pressure;Samples;Min_cycle;Max_cycle;Signal;HPM_P1;HPM_P2
2023/09/09 00:00:01;;;;;;;2.83;2.20;;;;;;;21.26;70.11;99492.72;336256;28;4877;-70
2023/09/09 00:00:13;;;;;;;2.95;2.20;;;;;;;21.29;70.11;99486.38;333907;28;18261;-70
2023/09/09 00:00:25;;;;;;;3.33;2.33;;;;;;;21.29;70.19;99492.50;335326;28;17441;-70
2023/09/09 00:00:39;;;;;;;3.40;2.30;;;;;;;21.31;69.93;99481.81;336512;28;5605;-70
2023/09/09 00:00:52;;;;;;;2.92;2.25;;;;;;;21.31;70.02;99484.44;333759;28;18108;-70
2023/09/09 00:01:05;;;;;;;2.55;2.10;;;;;;;21.29;70.62;99489.03;336613;28;16619;-70
2023/09/09 00:01:17;;;;;;;3.75;2.33;;;;;;;21.29;70.70;99486.38;333852;28;18377;-70
2023/09/09 00:01:31;;;;;;;4.07;2.50;;;;;;;21.27;70.53;99482.97;333940;28;18014;-70
2023/09/09 00:01:43;;;;;;;3.22;2.22;;;;;;;21.30;70.13;99483.59;336679;28;5522;-70
2023/09/09 00:01:55;;;;;;;2.50;2.05;;;;;;;21.29;70.27;99481.09;333577;28;16250;-70
2023/09/09 00:02:08;;;;;;;2.75;2.33;;;;;;;21.28;70.50;99479.41;331476;28;5255;-71
2023/09/09 00:02:20;;;;;;;2.85;2.47;;;;;;;21.26;70.55;99482.16;326976;29;16321;-70
2023/09/09 00:02:32;;;;;;;3.05;2.55;;;;;;;21.27;70.20;99478.56;335078;29;5626;-70
2023/09/09 00:02:44;;;;;;;3.65;2.67;;;;;;;21.20;70.36;99487.09;334756;29;4660;-70
2023/09/09 00:02:56;;;;;;;4.28;2.63;;;;;;;21.20;70.38;99484.47;328736;29;17997;-70
2023/09/09 00:03:08;;;;;;;4.85;2.63;;;;;;;21.21;70.21;99486.97;334928;29;5132;-70
2023/09/09 00:03:21;;;;;;;4.40;2.65;;;;;;;21.21;70.39;99479.06;330027;29;18082;-70
2023/09/09 00:03:34;;;;;;;3.67;2.60;;;;;;;21.22;70.55;99474.59;332827;29;17427;-70
2023/09/09 00:03:48;;;;;;;3.47;2.50;;;;;;;21.22;70.32;99479.88;332616;29;17906;-70
2023/09/09 00:04:02;;;;;;;3.80;2.65;;;;;;;21.23;70.15;99481.53;332406;29;18093;-70
2023/09/09 00:04:14;;;;;;;3.83;2.80;;;;;;;21.22;70.28;99482.53;332567;29;11838;-70
2023/09/09 00:04:26;;;;;;;3.97;2.78;;;;;;;21.24;70.47;99483.25;334772;29;4759;-70
2023/09/09 00:04:39;;;;;;;3.67;2.85;;;;;;;21.25;70.19;99484.91;335353;29;5267;-70
2023/09/09 00:04:54;;;;;;;3.08;2.58;;;;;;;21.27;70.49;99482.97;332450;29;16650;-71
2023/09/09 00:05:07;;;;;;;2.97;2.40;;;;;;;21.27;70.64;99482.97;331972;29;18009;-70
2023/09/09 00:05:18;;;;;;;3.63;2.58;;;;;;;21.26;70.47;99482.16;336669;28;5731;-71
2023/09/09 00:05:33;;;;;;;4.60;2.65;;;;;;;21.28;70.19;99479.41;333701;28;13049;-70
2023/09/09 00:05:45;;;;;;;5.28;2.58;;;;;;;21.28;70.43;99482.03;336330;28;4651;-70
2023/09/09 00:05:57;;;;;;;3.63;2.25;;;;;;;21.28;70.41;99476.75;333464;28;18749;-70
2023/09/09 00:06:12;;;;;;;3.03;2.17;;;;;;;21.31;70.08;99490.56;335131;29;4660;-70
2023/09/09 00:06:25;;;;;;;2.95;2.30;;;;;;;21.33;70.05;99477.25;332367;29;17894;-70
2023/09/09 00:06:37;;;;;;;3.10;2.35;;;;;;;21.32;70.16;99480.81;332698;29;18007;-70
2023/09/09 00:06:49;;;;;;;2.85;2.10;;;;;;;21.32;69.96;99480.81;335375;29;4681;-70
2023/09/09 00:07:03;;;;;;;3.17;2.00;;;;;;;21.32;70.15;99475.53;332202;29;18882;-70
2023/09/09 00:07:15;;;;;;;3.47;2.20;;;;;;;21.32;69.98;99472.91;336476;28;4577;-70
2023/09/09 00:07:27;;;;;;;3.10;2.20;;;;;;;21.33;70.05;99485.16;333840;28;17650;-70
2023/09/09 00:07:39;;;;;;;2.67;2.33;;;;;;;21.30;70.18;99480.13;336563;28;4589;-70
2023/09/09 00:07:51;;;;;;;3.22;2.42;;;;;;;21.29;70.11;99481.09;336135;28;5388;-70
2023/09/09 00:08:03;;;;;;;3.95;2.55;;;;;;;21.27;69.97;99478.56;332302;29;18175;-70
2023/09/09 00:08:16;;;;;;;3.97;2.50;;;;;;;21.25;70.25;99483.13;334740;29;5307;-70
2023/09/09 00:08:31;;;;;;;4.45;2.72;;;;;;;21.25;70.09;99484.91;332360;29;18432;-70
2023/09/09 00:08:43;;;;;;;3.85;2.72;;;;;;;21.13;70.67;99479.66;332290;29;17945;-70
2023/09/09 00:08:55;;;;;;;3.35;2.70;;;;;;;21.05;70.89;99479.44;329392;29;4623;-70
2023/09/09 00:09:07;;;;;;;3.65;2.70;;;;;;;21.02;71.45;99474.38;332197;29;18165;-70
2023/09/09 00:09:19;;;;;;;3.35;2.50;;;;;;;21.02;71.19;99484.94;330673;29;4579;-70
2023/09/09 00:09:32;;;;;;;3.20;2.42;;;;;;;21.02;71.06;99479.66;333063;29;11862;-70
2023/09/09 00:09:44;;;;;;;3.20;2.55;;;;;;;21.06;71.00;99478.44;335068;29;4569;-70
2023/09/09 00:09:56;;;;;;;3.35;2.58;;;;;;;21.08;70.77;99488.91;332330;29;7211;-70
2023/09/09 00:10:09;;;;;;;3.42;2.60;;;;;;;21.06;71.05;99486.38;335175;29;5218;-70
2023/09/09 00:10:21;;;;;;;3.80;2.80;;;;;;;21.07;70.96;99482.78;334911;29;5371;-71
2023/09/09 00:10:37;;;;;;;3.92;2.78;;;;;;;21.09;70.78;99475.56;332671;29;17965;-70
2023/09/09 00:10:49;;;;;;;4.15;2.70;;;;;;;21.09;70.87;99478.22;327974;29;17757;-70
2023/09/09 00:11:02;;;;;;;3.63;2.45;;;;;;;21.08;70.61;99480.97;334828;29;4663;-70
2023/09/09 00:11:14;;;;;;;3.53;2.38;;;;;;;21.05;70.84;99481.22;330533;28;18324;-70
2023/09/09 00:11:26;;;;;;;4.07;2.75;;;;;;;20.99;70.75;99485.19;335796;28;4823;-71
2023/09/09 00:11:38;;;;;;;4.20;2.90;;;;;;;20.98;71.15;99478.22;333935;28;4702;-71
2023/09/09 00:11:50;;;;;;;4.95;2.65;;;;;;;20.97;71.10;99479.19;336419;28;4532;-70
2023/09/09 00:12:02;;;;;;;8.95;2.60;;;;;;;20.98;71.25;99474.75;336337;28;4726;-70
2023/09/09 00:12:14;;;;;;;9.50;2.65;;;;;;;20.98;70.99;99475.56;329338;28;18238;-70
2023/09/09 00:12:27;;;;;;;7.25;2.65;;;;;;;21.00;71.14;99476.28;336288;28;4511;-70
2023/09/09 00:12:39;;;;;;;3.88;2.47;;;;;;;20.99;70.79;99474.63;333610;28;18291;-70
2023/09/09 00:12:51;;;;;;;4.28;2.50;;;;;;;20.97;71.38;99471.25;336329;28;4682;-70
2023/09/09 00:13:04;;;;;;;4.40;2.50;;;;;;;21.00;70.93;99486.88;333835;28;15968;-70
2023/09/09 00:13:16;;;;;;;5.15;2.58;;;;;;;20.98;71.00;99472.94;336479;28;4948;-70
2023/09/09 00:13:28;;;;;;;7.22;2.58;;;;;;;20.99;70.88;99479.03;333397;28;17279;-70
2023/09/09 00:13:40;;;;;;;7.32;2.80;;;;;;;21.00;70.89;99476.28;336772;28;5002;-70
2023/09/09 00:13:53;;;;;;;3.90;2.50;;;;;;;21.02;70.85;99479.66;333824;28;11953;-70
2023/09/09 00:14:05;;;;;;;3.22;2.20;;;;;;;21.00;71.14;99475.47;336497;28;4639;-70
2023/09/09 00:14:17;;;;;;;3.17;2.20;;;;;;;20.97;71.68;99473.91;331584;29;5504;-71
2023/09/09 00:14:30;;;;;;;3.40;2.35;;;;;;;20.95;71.45;99483.75;333889;29;5475;-70
2023/09/09 00:14:42;;;;;;;3.30;2.40;;;;;;;20.93;71.01;99472.47;333845;29;4872;-70
2023/09/09 00:14:54;;;;;;;3.38;2.55;;;;;;;20.85;71.59;99474.88;331193;29;18310;-70
2023/09/09 00:15:06;;;;;;;3.92;2.63;;;;;;;20.82;71.77;99477.75;329359;29;4711;-70
2023/09/09 00:15:18;;;;;;;3.88;2.70;;;;;;;20.84;71.39;99473.19;336421;28;4631;-70
2023/09/09 00:15:33;;;;;;;5.00;2.70;;;;;;;20.89;71.76;99473.66;333092;28;18086;-70
2023/09/09 00:15:52;;;;;;;5.43;2.65;;;;;;;20.84;72.06;99483.75;331386;28;17227;-70
2023/09/09 00:16:05;;;;;;;4.55;2.75;;;;;;;20.84;72.03;99473.19;333746;28;19073;-70
2023/09/09 00:16:17;;;;;;;4.55;2.70;;;;;;;20.84;72.09;99484.56;336686;28;4525;-70
2023/09/09 00:16:36;;;;;;;5.05;2.78;;;;;;;20.86;72.04;99480.00;329086;28;5330;-70
2023/09/09 00:16:48;;;;;;;4.28;2.80;;;;;;;20.86;72.12;99484.47;334668;28;17874;-70
2023/09/09 00:17:00;;;;;;;4.57;2.78;;;;;;;20.85;72.02;99469.59;335016;28;19398;-70
2023/09/09 00:17:12;;;;;;;4.32;2.70;;;;;;;20.86;72.07;99471.25;336086;28;5235;-71
2023/09/09 00:17:25;;;;;;;4.32;2.70;;;;;;;20.85;71.89;99478.34;334034;28;11217;-70
2023/09/09 00:17:37;;;;;;;3.53;2.63;;;;;;;20.82;72.11;99473.28;336046;28;5119;-71
2023/09/09 00:17:50;;;;;;;3.78;2.60;;;;;;;20.87;71.75;99480.88;336026;28;18122;-71
2023/09/09 00:18:02;;;;;;;4.25;2.50;;;;;;;20.88;71.89;99478.09;328588;28;18456;-71
2023/09/09 00:18:14;;;;;;;4.68;2.53;;;;;;;20.89;72.06;99468.38;333573;28;9766;-70
2023/09/09 00:18:26;;;;;;;11.32;2.50;;;;;;;20.89;72.22;99476.31;336212;28;4652;-71
2023/09/09 00:18:38;;;;;;;12.00;2.70;;;;;;;20.90;71.81;99477.97;336639;28;5156;-70
2023/09/09 00:18:51;;;;;;;6.38;2.75;;;;;;;20.82;72.10;99478.56;333701;28;19198;-70
2023/09/09 00:19:04;;;;;;;5.25;2.95;;;;;;;20.78;72.79;99471.00;336143;28;4667;-70
2023/09/09 00:19:16;;;;;;;4.28;2.90;;;;;;;20.80;72.55;99479.66;333891;28;18108;-70
2023/09/09 00:19:28;;;;;;;3.35;2.70;;;;;;;20.82;72.13;99472.47;335858;28;5429;-70
2023/09/09 00:19:40;;;;;;;2.88;2.33;;;;;;;20.79;72.30;99483.28;333614;28;18252;-71
2023/09/09 00:19:52;;;;;;;3.65;2.58;;;;;;;20.80;72.34;99477.00;334558;28;4713;-71
2023/09/09 00:20:09;;;;;;;3.70;2.60;;;;;;;20.81;72.52;99476.91;333754;28;11619;-70
2023/09/09 00:20:35;;;;;;;3.33;2.47;;;;;;;20.75;72.76;99472.94;333513;28;17542;-71
2023/09/09 00:20:47;;;;;;;3.55;2.42;;;;;;;20.78;72.51;99476.28;333719;28;17278;-71
2023/09/09 00:21:00;;;;;;;4.32;3.00;;;;;;;20.81;72.59;99478.72;331381;28;4691;-70
2023/09/09 00:21:14;;;;;;;4.32;3.03;;;;;;;20.83;72.17;99474.97;333820;28;18525;-70
2023/09/09 00:21:26;;;;;;;3.90;2.63;;;;;;;20.86;72.36;99474.72;333528;28;18147;-70
2023/09/09 00:21:38;;;;;;;3.63;2.50;;;;;;;20.84;72.31;99470.53;336126;28;4546;-70
2023/09/09 00:21:50;;;;;;;3.40;2.30;;;;;;;20.90;72.03;99475.34;336157;28;5071;-70
2023/09/09 00:22:02;;;;;;;2.95;2.05;;;;;;;20.93;71.90;99469.81;333714;28;17857;-70
2023/09/09 00:22:14;;;;;;;2.28;2.03;;;;;;;20.96;71.94;99472.22;336282;28;4618;-71
2023/09/09 00:22:27;;;;;;;3.03;2.17;;;;;;;20.99;71.66;99479.03;334005;28;16846;-70
2023/09/09 00:22:39;;;;;;;3.20;2.33;;;;;;;20.99;71.92;99471.97;336704;28;4962;-70
2023/09/09 00:22:51;;;;;;;3.38;2.50;;;;;;;20.99;71.78;99474.63;333341;28;18223;-70
2023/09/09 00:23:07;;;;;;;3.45;2.60;;;;;;;21.01;71.61;99472.69;336502;28;4469;-70
2023/09/09 00:23:20;;;;;;;3.70;2.70;;;;;;;21.01;71.35;99471.88;334397;28;17712;-71
2023/09/09 00:23:31;;;;;;;3.67;2.90;;;;;;;20.95;71.69;99474.03;333763;28;17873;-71
2023/09/09 00:23:43;;;;;;;3.83;2.85;;;;;;;20.96;72.05;99472.22;336536;28;5035;-70
2023/09/09 00:23:56;;;;;;;3.90;2.83;;;;;;;20.98;71.61;99472.94;331217;28;5865;-71
2023/09/09 00:24:08;;;;;;;3.95;2.60;;;;;;;20.97;71.80;99476.56;333616;28;19019;-70
2023/09/09 00:24:20;;;;;;;3.53;2.47;;;;;;;20.99;71.73;99474.63;336307;28;5248;-70
2023/09/09 00:24:32;;;;;;;3.65;2.40;;;;;;;21.01;71.73;99478.00;333857;28;18126;-70
2023/09/09 00:24:44;;;;;;;4.00;2.60;;;;;;;21.02;71.33;99469.09;336193;28;4566;-70
2023/09/09 00:24:56;;;;;;;5.28;2.83;;;;;;;21.02;71.59;99473.53;334185;28;4655;-70
2023/09/09 00:25:08;;;;;;;6.45;2.88;;;;;;;21.00;71.95;99476.28;335551;28;18301;-71
2023/09/09 00:25:20;;;;;;;5.97;2.85;;;;;;;21.01;71.60;99478.00;331887;28;4768;-70
2023/09/09 00:25:33;;;;;;;3.47;2.70;;;;;;;21.02;71.67;99470.91;333647;28;12486;-70
2023/09/09 00:25:46;;;;;;;3.63;2.60;;;;;;;21.02;71.63;99468.25;336370;28;4483;-71
2023/09/09 00:25:58;;;;;;;3.70;2.60;;;;;;;21.02;71.82;99473.53;333717;28;18539;-70
2023/09/09 00:26:10;;;;;;;3.55;2.60;;;;;;;21.01;71.55;99475.34;336011;28;4603;-70
2023/09/09 00:26:22;;;;;;;3.45;2.42;;;;;;;21.03;71.45;99472.59;333918;28;18322;-71
2023/09/09 00:26:34;;;;;;;3.10;2.50;;;;;;;21.04;71.30;99475.09;336326;28;5990;-70
2023/09/09 00:26:46;;;;;;;2.92;2.50;;;;;;;21.04;71.33;99477.72;336279;28;5295;-71
2023/09/09 00:27:00;;;;;;;3.20;2.55;;;;;;;21.05;71.63;99476.78;334026;28;4851;-70
2023/09/09 00:27:12;;;;;;;3.85;2.65;;;;;;;21.05;71.36;99471.50;336459;28;5429;-70
2023/09/09 00:27:24;;;;;;;3.88;2.75;;;;;;;21.07;71.19;99474.84;333793;28;18145;-70
2023/09/09 00:27:36;;;;;;;6.88;2.63;;;;;;;21.04;71.27;99476.91;336429;28;4495;-71
2023/09/09 00:27:48;;;;;;;6.65;2.40;;;;;;;21.08;70.95;99476.53;333704;28;18044;-70
2023/09/09 00:28:00;;;;;;;3.10;2.40;;;;;;;21.04;71.05;99476.91;335827;28;5097;-70
2023/09/09 00:28:13;;;;;;;3.38;2.40;;;;;;;21.02;71.40;99479.66;331131;28;4746;-70
2023/09/09 00:28:25;;;;;;;3.90;2.60;;;;;;;21.03;71.06;99473.41;333541;28;18613;-71
2023/09/09 00:28:37;;;;;;;3.97;2.63;;;;;;;21.03;71.32;99470.78;333914;28;11943;-70
2023/09/09 00:28:49;;;;;;;3.53;2.63;;;;;;;21.03;71.34;99481.34;336288;28;5693;-70
2023/09/09 00:29:03;;;;;;;3.55;2.50;;;;;;;21.04;71.11;99476.91;336328;28;4575;-70
2023/09/09 00:29:15;;;;;;;4.00;2.65;;;;;;;21.05;71.33;99474.13;333540;28;17770;-71
2023/09/09 00:29:27;;;;;;;4.35;2.90;;;;;;;21.03;71.14;99476.06;336094;28;11069;-71
2023/09/09 00:29:39;;;;;;;4.75;2.72;;;;;;;21.06;71.19;99474.97;333919;28;4966;-70
2023/09/09 00:29:51;;;;;;;4.45;2.42;;;;;;;21.05;71.25;99475.94;336335;28;4658;-71
2023/09/09 00:30:04;;;;;;;4.13;2.55;;;;;;;21.05;71.19;99474.13;333605;28;4776;-70
2023/09/09 00:30:16;;;;;;;3.88;2.55;;;;;;;21.04;70.72;99476.91;336433;28;5216;-70
2023/09/09 00:30:28;;;;;;;3.72;2.40;;;;;;;21.02;71.06;99479.66;335854;28;5334;-70
2023/09/09 00:30:41;;;;;;;5.13;2.35;;;;;;;21.01;71.10;99478.00;335121;28;17197;-70
2023/09/09 00:30:54;;;;;;;5.20;2.47;;;;;;;21.00;71.21;99476.28;336111;28;4524;-71
2023/09/09 00:31:06;;;;;;;3.75;2.42;;;;;;;20.98;71.45;99472.09;328589;28;18416;-70
2023/09/09 00:31:18;;;;;;;4.15;2.60;;;;;;;20.97;71.20;99476.56;336554;28;4534;-70
2023/09/09 00:31:30;;;;;;;3.42;2.45;;;;;;;20.96;71.63;99472.22;331989;28;18283;-70
2023/09/09 00:31:42;;;;;;;4.72;2.25;;;;;;;20.96;71.37;99474.84;336461;28;4716;-70
2023/09/09 00:31:54;;;;;;;4.32;2.17;;;;;;;20.95;71.40;99475.84;333892;28;18019;-70
2023/09/09 00:32:06;;;;;;;3.17;2.30;;;;;;;20.98;71.50;99474.75;335957;28;4545;-70
2023/09/09 00:32:18;;;;;;;3.42;2.50;;;;;;;20.98;71.55;99477.38;333469;29;13183;-71
2023/09/09 00:32:30;;;;;;;3.63;2.40;;;;;;;20.96;71.73;99474.84;336008;29;5504;-70
2023/09/09 00:32:42;;;;;;;3.53;2.28;;;;;;;20.92;71.41;99478.69;331190;29;4957;-70
2023/09/09 00:32:55;;;;;;;3.33;2.47;;;;;;;20.94;71.58;99476.78;333432;29;11871;-70
2023/09/09 00:33:08;;;;;;;4.00;2.88;;;;;;;20.93;71.49;99483.88;336037;29;4665;-70
2023/09/09 00:33:20;;;;;;;4.30;2.90;;;;;;;20.92;71.54;99473.41;333298;29;17933;-70
2023/09/09 00:33:32;;;;;;;4.15;2.78;;;;;;;20.95;71.14;99483.75;335971;29;5373;-70
2023/09/09 00:33:44;;;;;;;3.25;2.53;;;;;;;20.95;71.35;99473.19;336010;29;5390;-71
2023/09/09 00:33:56;;;;;;;4.05;2.40;;;;;;;20.96;71.22;99474.84;333399;29;18449;-70
2023/09/09 00:34:08;;;;;;;4.15;2.25;;;;;;;20.96;71.15;99474.84;334535;29;4537;-71
2023/09/09 00:34:21;;;;;;;5.60;2.53;;;;;;;20.94;71.20;99474.13;330944;29;17872;-70
2023/09/09 00:34:34;;;;;;;6.07;2.85;;;;;;;20.93;71.10;99469.81;334637;29;4905;-70
2023/09/09 00:34:46;;;;;;;5.75;2.75;;;;;;;20.93;71.05;99469.81;332266;29;17787;-70
2023/09/09 00:34:58;;;;;;;4.18;2.85;;;;;;;20.92;71.23;99483.97;334805;29;4487;-70
2023/09/09 00:35:10;;;;;;;4.38;2.70;;;;;;;20.92;71.11;99478.69;332565;29;18061;-70
2023/09/09 00:35:22;;;;;;;3.47;2.45;;;;;;;20.93;71.41;99469.81;334735;29;4524;-70
2023/09/09 00:35:37;;;;;;;4.40;2.42;;;;;;;20.94;70.89;99482.06;335776;29;4623;-70
2023/09/09 00:35:49;;;;;;;4.05;2.40;;;;;;;20.96;71.07;99469.56;333249;29;17778;-70
2023/09/09 00:36:02;;;;;;;4.07;2.55;;;;;;;20.96;71.02;99474.84;333187;29;18140;-70
2023/09/09 00:36:14;;;;;;;3.97;2.60;;;;;;;20.94;71.21;99476.78;336148;28;4666;-70
2023/09/09 00:36:26;;;;;;;3.95;2.67;;;;;;;20.94;70.89;99479.41;327530;28;18107;-70
2023/09/09 00:36:38;;;;;;;3.83;2.60;;;;;;;20.94;71.01;99471.50;336500;28;4533;-70
2023/09/09 00:36:50;;;;;;;3.70;2.60;;;;;;;20.96;70.88;99480.13;335852;28;5442;-70
2023/09/09 00:37:03;;;;;;;4.03;2.50;;;;;;;20.96;71.03;99477.50;333748;28;17858;-71
2023/09/09 00:37:15;;;;;;;4.18;2.65;;;;;;;20.93;71.11;99472.47;336191;28;4496;-70
2023/09/09 00:37:27;;;;;;;3.92;2.60;;;;;;;20.94;71.10;99476.78;333847;28;17967;-70
2023/09/09 00:37:40;;;;;;;3.58;2.65;;;;;;;20.93;70.90;99475.94;332372;28;5723;-71
2023/09/09 00:37:52;;;;;;;3.47;2.65;;;;;;;20.94;70.93;99471.50;333745;28;18078;-70
2023/09/09 00:38:12;;;;;;;3.28;2.60;;;;;;;20.93;71.19;99475.94;336360;28;4629;-70
2023/09/09 00:38:24;;;;;;;3.88;2.63;;;;;;;20.93;70.97;99483.03;333781;28;17401;-70
2023/09/09 00:38:36;;;;;;;3.90;2.78;;;;;;;20.93;71.13;99475.09;331512;28;5292;-70
2023/09/09 00:38:48;;;;;;;3.67;2.65;;;;;;;20.95;70.85;99478.47;333883;28;18033;-70
2023/09/09 00:39:03;;;;;;;3.10;2.50;;;;;;;20.94;70.98;99476.78;336192;28;5556;-71
2023/09/09 00:39:15;;;;;;;2.60;2.20;;;;;;;20.95;70.96;99476.66;333743;28;18221;-70
2023/09/09 00:39:27;;;;;;;3.05;2.50;;;;;;;20.98;70.76;99477.38;333590;28;18016;-71
2023/09/09 00:39:39;;;;;;;3.00;2.47;;;;;;;20.98;70.60;99472.94;336403;28;4526;-70
2023/09/09 00:39:51;;;;;;;3.60;2.75;;;;;;;21.00;70.43;99475.47;336252;28;4682;-70
2023/09/09 00:40:04;;;;;;;3.75;2.60;;;;;;;21.02;70.47;99473.53;333176;28;17938;-70
2023/09/09 00:40:16;;;;;;;4.10;2.35;;;;;;;21.00;70.58;99475.47;335893;29;5458;-70
2023/09/09 00:40:28;;;;;;;3.80;2.30;;;;;;;20.97;70.90;99473.91;328752;29;9474;-70
2023/09/09 00:40:44;;;;;;;3.20;2.42;;;;;;;20.97;70.88;99471.25;335933;29;5212;-70
2023/09/09 00:41:12;;;;;;;3.05;2.40;;;;;;;20.98;70.93;99472.94;332867;29;17815;-70
2023/09/09 00:41:24;;;;;;;2.42;2.03;;;;;;;20.97;71.07;99481.84;333406;29;17231;-71
2023/09/09 00:41:36;;;;;;;2.78;2.20;;;;;;;20.93;71.13;99467.19;335785;29;4490;-71
2023/09/09 00:41:48;;;;;;;3.50;2.45;;;;;;;20.95;70.90;99473.19;330244;29;4511;-70
2023/09/09 00:42:01;;;;;;;3.40;2.45;;;;;;;20.97;70.70;99471.25;327543;29;18356;-70
2023/09/09 00:42:13;;;;;;;3.63;2.45;;;;;;;20.95;70.84;99478.47;334632;28;11881;-70
2023/09/09 00:42:25;;;;;;;5.25;2.70;;;;;;;20.94;71.08;99476.78;329984;28;17963;-70
2023/09/09 00:42:37;;;;;;;4.85;2.50;;;;;;;20.91;71.10;99472.59;336569;28;4685;-70
2023/09/09 00:42:50;;;;;;;3.60;2.45;;;;;;;20.92;71.11;99479.53;334002;28;18141;-70
2023/09/09 00:43:02;;;;;;;3.70;2.60;;;;;;;20.92;71.19;99478.69;336218;28;4540;-70
2023/09/09 00:43:14;;;;;;;3.40;2.42;;;;;;;20.90;71.13;99475.34;331520;28;18348;-70
2023/09/09 00:43:26;;;;;;;3.25;2.30;;;;;;;20.92;71.19;99473.41;335245;29;4472;-70
2023/09/09 00:43:38;;;;;;;3.65;2.58;;;;;;;20.91;71.06;99471.75;332880;29;4749;-70
2023/09/09 00:43:52;;;;;;;4.25;2.78;;;;;;;20.92;71.02;99473.41;332646;29;17238;-70
2023/09/09 00:44:04;;;;;;;4.25;2.90;;;;;;;20.93;71.01;99480.41;332832;29;18161;-70
2023/09/09 00:44:18;;;;;;;4.28;2.78;;;;;;;20.94;70.94;99471.50;334020;29;5604;-70
2023/09/09 00:44:30;;;;;;;4.47;2.67;;;;;;;20.92;71.08;99473.41;330825;29;18074;-70
2023/09/09 00:44:42;;;;;;;5.90;2.70;;;;;;;20.94;71.05;99474.13;328881;29;4551;-70
2023/09/09 00:44:54;;;;;;;5.55;2.58;;;;;;;20.94;70.94;99476.78;333060;29;5421;-70
2023/09/09 00:45:06;;;;;;;4.05;2.70;;;;;;;20.93;71.21;99481.22;329786;29;18382;-70
2023/09/09 00:45:18;;;;;;;3.67;2.33;;;;;;;20.93;70.97;99475.09;334842;29;4534;-70
2023/09/09 00:45:31;;;;;;;3.47;2.15;;;;;;;20.90;71.41;99477.97;332549;29;5358;-70
2023/09/09 00:45:44;;;;;;;3.40;2.33;;;;;;;20.90;71.02;99470.06;334580;29;4862;-70
2023/09/09 00:45:56;;;;;;;3.13;2.45;;;;;;;20.89;71.07;99474.50;332240;29;17816;-70
2023/09/09 00:46:09;;;;;;;2.97;2.38;;;;;;;20.90;71.39;99475.34;330332;29;4661;-70
2023/09/09 00:46:21;;;;;;;2.95;2.40;;;;;;;20.91;71.21;99477.03;323801;29;18173;-71
2023/09/09 00:46:33;;;;;;;3.05;2.17;;;;;;;20.91;71.30;99479.69;335186;29;4620;-70
2023/09/09 00:46:45;;;;;;;3.33;2.20;;;;;;;20.92;71.04;99473.41;332366;29;10604;-70
2023/09/09 00:46:58;;;;;;;3.35;2.33;;;;;;;20.92;70.87;99474.25;334842;29;4608;-70
2023/09/09 00:47:10;;;;;;;3.88;2.63;;;;;;;20.92;71.19;99483.97;332089;29;18181;-70
2023/09/09 00:47:24;;;;;;;4.32;2.50;;;;;;;20.93;71.12;99475.09;334960;29;4472;-70
2023/09/09 00:47:37;;;;;;;4.20;2.30;;;;;;;20.91;71.38;99471.75;327186;29;17985;-70
2023/09/09 00:47:50;;;;;;;4.38;2.60;;;;;;;20.87;71.54;99472.94;334998;29;4524;-70
2023/09/09 00:48:02;;;;;;;3.30;2.53;;;;;;;20.89;71.06;99478.97;331351;29;19078;-70
2023/09/09 00:48:14;;;;;;;3.55;2.45;;;;;;;20.92;70.96;99473.41;334712;29;4649;-70
2023/09/09 00:48:27;;;;;;;3.38;2.47;;;;;;;20.92;71.17;99473.41;332193;29;18285;-70
2023/09/09 00:48:39;;;;;;;3.45;2.38;;;;;;;20.94;70.94;99468.84;334890;29;5086;-70
2023/09/09 00:48:51;;;;;;;3.15;2.30;;;;;;;20.93;71.14;99467.19;331892;29;18006;-70
2023/09/09 00:49:03;;;;;;;3.55;2.47;;;;;;;20.93;71.17;99467.19;329979;29;5468;-70
2023/09/09 00:49:15;;;;;;;3.88;2.60;;;;;;;20.93;70.97;99472.47;332342;29;12907;-70
2023/09/09 00:49:27;;;;;;;4.00;2.70;;;;;;;20.91;71.13;99471.75;335377;29;4612;-70
2023/09/09 00:49:40;;;;;;;3.47;2.50;;;;;;;20.90;71.15;99475.34;335377;29;5378;-70
2023/09/09 00:49:52;;;;;;;3.63;2.63;;;;;;;20.88;71.50;99474.63;332207;29;18025;-70
2023/09/09 00:50:08;;;;;;;3.50;2.60;;;;;;;20.84;71.63;99471.38;335031;29;5147;-70
2023/09/09 00:50:22;;;;;;;4.65;2.50;;;;;;;20.87;71.03;99475.59;333201;29;17738;-71
2023/09/09 00:50:34;;;;;;;4.15;2.30;;;;;;;20.86;71.23;99479.19;327350;29;18289;-71
2023/09/09 00:50:46;;;;;;;4.13;2.50;;;;;;;20.88;71.30;99467.53;333543;29;4659;-71
2023/09/09 00:50:58;;;;;;;4.47;2.60;;;;;;;20.89;71.19;99473.66;329101;29;17906;-70
2023/09/09 00:51:12;;;;;;;3.65;2.50;;;;;;;20.91;71.36;99471.75;334188;29;4571;-71
2023/09/09 00:51:24;;;;;;;3.35;2.60;;;;;;;20.90;71.36;99475.34;332150;29;17748;-71
2023/09/09 00:51:39;;;;;;;3.25;2.67;;;;;;;20.92;71.05;99473.41;334701;29;5175;-71
2023/09/09 00:51:51;;;;;;;3.95;2.60;;;;;;;20.91;71.00;99466.47;331937;29;18921;-71
2023/09/09 00:52:04;;;;;;;4.00;2.50;;;;;;;20.93;71.22;99475.09;332122;29;18116;-71
2023/09/09 00:52:16;;;;;;;3.47;2.55;;;;;;;20.95;70.78;99473.19;333962;29;5654;-71
2023/09/09 00:52:28;;;;;;;3.47;2.55;;;;;;;20.97;71.16;99471.25;331939;29;17908;-71
2023/09/09 00:52:41;;;;;;;3.70;2.67;;;;;;;20.96;71.21;99469.56;334980;29;5278;-70
2023/09/09 00:52:54;;;;;;;3.60;2.70;;;;;;;20.96;71.41;99472.22;332215;29;18034;-70
2023/09/09 00:53:06;;;;;;;3.72;2.72;;;;;;;20.97;71.23;99465.97;334968;29;4544;-71
2023/09/09 00:53:18;;;;;;;3.90;2.78;;;;;;;20.97;71.32;99467.75;332588;29;18177;-70
2023/09/09 00:53:31;;;;;;;3.83;2.67;;;;;;;20.98;71.31;99475.56;330674;29;4523;-70
2023/09/09 00:53:44;;;;;;;3.35;2.55;;;;;;;20.96;71.25;99466.94;332946;29;5254;-71
2023/09/09 00:53:56;;;;;;;3.83;2.45;;;;;;;20.90;71.13;99467.41;335364;29;4524;-71
2023/09/09 00:54:08;;;;;;;4.43;2.58;;;;;;;20.90;71.02;99467.41;332550;29;18326;-70
2023/09/09 00:54:20;;;;;;;4.38;2.75;;;;;;;20.92;71.28;99473.41;335017;29;4485;-70
2023/09/09 00:54:32;;;;;;;4.28;2.70;;;;;;;20.93;70.85;99468.00;335099;29;4540;-70
2023/09/09 00:54:45;;;;;;;3.85;2.38;;;;;;;20.93;71.14;99473.31;332255;29;17938;-70
2023/09/09 00:54:58;;;;;;;3.83;2.33;;;;;;;20.92;71.25;99468.97;330228;29;4742;-70
2023/09/09 00:55:11;;;;;;;4.22;2.50;;;;;;;20.93;71.15;99469.81;331857;29;19180;-70
2023/09/09 00:55:27;;;;;;;3.85;2.55;;;;;;;20.92;71.02;99468.13;328040;29;17887;-70
2023/09/09 00:55:40;;;;;;;3.50;2.40;;;;;;;20.93;71.12;99469.81;332198;29;19306;-70
2023/09/09 00:55:54;;;;;;;2.92;2.10;;;;;;;20.89;71.04;99463.94;332253;29;12372;-70
2023/09/09 00:56:06;;;;;;;3.60;2.17;;;;;;;20.88;71.10;99466.69;334626;29;4553;-70
2023/09/09 00:56:18;;;;;;;3.65;2.30;;;;;;;20.86;71.46;99472.09;332237;29;4517;-70
2023/09/09 00:56:33;;;;;;;3.83;2.45;;;;;;;20.81;71.79;99466.34;335248;29;4477;-70
2023/09/09 00:56:45;;;;;;;4.68;2.88;;;;;;;20.82;71.73;99472.47;333004;29;17828;-71
2023/09/09 00:57:00;;;;;;;4.25;2.65;;;;;;;20.84;71.63;99470.53;334784;29;4706;-71
2023/09/09 00:57:15;;;;;;;5.07;2.33;;;;;;;20.81;71.51;99470.78;331931;29;18104;-71
2023/09/09 00:57:28;;;;;;;5.57;2.38;;;;;;;20.83;71.62;99474.16;332405;29;18119;-70
2023/09/09 00:57:40;;;;;;;4.57;2.35;;;;;;;20.84;71.46;99473.19;332475;29;17860;-70
2023/09/09 00:57:52;;;;;;;4.40;2.30;;;;;;;20.85;71.51;99474.88;335194;29;4657;-70
2023/09/09 00:58:04;;;;;;;3.35;2.50;;;;;;;20.87;71.29;99473.78;334458;29;4595;-70
2023/09/09 00:58:16;;;;;;;3.30;2.45;;;;;;;20.87;71.35;99472.94;330905;29;18164;-70
2023/09/09 00:58:31;;;;;;;3.10;2.47;;;;;;;20.85;71.62;99467.78;331303;29;17714;-70
2023/09/09 00:58:43;;;;;;;3.28;2.42;;;;;;;20.88;71.31;99462.25;335158;29;5502;-70
2023/09/09 00:58:55;;;;;;;3.42;2.22;;;;;;;20.89;71.54;99463.94;332392;29;17990;-70
2023/09/09 00:59:10;;;;;;;3.47;2.05;;;;;;;20.89;71.21;99458.66;335202;29;5395;-70
2023/09/09 00:59:22;;;;;;;4.15;2.40;;;;;;;20.87;71.43;99475.59;333446;28;17437;-70
2023/09/09 00:59:34;;;;;;;4.22;2.60;;;;;;;20.87;71.44;99475.59;333908;28;5524;-70
2023/09/09 00:59:47;;;;;;;3.08;2.33;;;;;;;20.87;71.65;99470.31;335768;28;17967;-70
2023/09/09 01:00:03;;;;;;;3.20;2.35;;;;;;;20.88;71.19;99474.63;336396;28;4697;-70
2023/09/09 01:00:17;;;;;;;3.53;2.40;;;;;;;20.90;71.06;99464.78;331198;29;17806;-70
2023/09/09 01:00:29;;;;;;;3.85;2.35;;;;;;;20.89;71.41;99466.56;333774;29;4677;-70
2023/09/09 01:00:41;;;;;;;3.90;2.30;;;;;;;20.91;71.11;99463.81;330849;29;17929;-70
2023/09/09 01:00:53;;;;;;;3.67;2.40;;;;;;;20.92;70.96;99462.84;334296;29;5241;-70